createdAt,value
2018-12-12T00:00:55.016Z,1019.62
2018-12-12T00:01:55.539Z,1019.63
2018-12-12T00:02:55.052Z,1019.68
2018-12-12T00:03:55.538Z,1019.67
2018-12-12T00:04:54.971Z,1019.59
2018-12-12T00:05:54.964Z,1019.61
2018-12-12T00:06:54.956Z,1019.66
2018-12-12T00:07:54.947Z,1019.68
2018-12-12T00:08:55.052Z,1019.72
2018-12-12T00:09:54.920Z,1019.73
2018-12-12T00:10:54.906Z,1019.71
2018-12-12T00:11:54.901Z,1019.77
2018-12-12T00:12:54.890Z,1019.80
2018-12-12T00:13:54.928Z,1019.81
2018-12-12T00:14:54.876Z,1019.77
2018-12-12T00:15:55.539Z,1019.82
2018-12-12T00:16:54.841Z,1019.80
2018-12-12T00:17:54.837Z,1019.75
2018-12-12T00:18:54.831Z,1019.77
2018-12-12T00:19:55.557Z,1019.74
2018-12-12T00:20:54.799Z,1019.85
2018-12-12T00:21:54.788Z,1019.79
2018-12-12T00:22:54.778Z,1019.86
2018-12-12T00:23:55.077Z,1019.85
2018-12-12T00:24:54.764Z,1019.86
2018-12-12T00:25:55.548Z,1019.85
2018-12-12T00:26:54.738Z,1019.74
2018-12-12T00:27:54.719Z,1019.82
2018-12-12T00:28:54.727Z,1019.79
2018-12-12T00:29:54.698Z,1019.75
2018-12-12T00:30:54.691Z,1019.76
2018-12-12T00:31:55.548Z,1019.75
2018-12-12T00:32:55.539Z,1019.69
2018-12-12T00:33:54.665Z,1019.73
2018-12-12T00:34:54.649Z,1019.72
2018-12-12T00:35:54.643Z,1019.72
2018-12-12T00:36:55.542Z,1019.70
2018-12-12T00:37:54.619Z,1019.69
2018-12-12T00:38:54.651Z,1019.69
2018-12-12T00:39:54.591Z,1019.64
2018-12-12T00:40:54.585Z,1019.70
2018-12-12T00:41:55.538Z,1019.63
2018-12-12T00:42:54.563Z,1019.62
2018-12-12T00:43:55.050Z,1019.61
2018-12-12T00:44:54.536Z,1019.52
2018-12-12T00:45:54.531Z,1019.55
2018-12-12T00:46:54.517Z,1019.55
2018-12-12T00:47:55.044Z,1019.53
2018-12-12T00:48:54.527Z,1019.48
2018-12-12T00:49:54.485Z,1019.49
2018-12-12T00:50:55.042Z,1019.57
2018-12-12T00:51:55.106Z,1019.59
2018-12-12T00:52:54.456Z,1019.59
2018-12-12T00:53:54.464Z,1019.60
2018-12-12T00:54:54.432Z,1019.57
2018-12-12T00:55:54.422Z,1019.60
2018-12-12T00:56:54.409Z,1019.59
2018-12-12T00:57:54.399Z,1019.59
2018-12-12T00:58:54.414Z,1019.58
2018-12-12T00:59:54.379Z,1019.62
2018-12-12T01:00:55.042Z,1019.60
2018-12-12T01:01:54.359Z,1019.62
2018-12-12T01:02:54.345Z,1019.66
2018-12-12T01:03:54.344Z,1019.65
2018-12-12T01:04:55.039Z,1019.72
2018-12-12T01:05:55.050Z,1019.79
2018-12-12T01:06:55.045Z,1019.71
2018-12-12T01:07:54.289Z,1019.75
2018-12-12T01:08:54.389Z,1019.73
2018-12-12T01:09:54.269Z,1019.77
2018-12-12T01:10:54.253Z,1019.74
2018-12-12T01:11:54.245Z,1019.75
2018-12-12T01:12:54.233Z,1019.80
2018-12-12T01:13:54.252Z,1019.79
2018-12-12T01:14:54.215Z,1019.80
2018-12-12T01:15:54.217Z,1019.84
2018-12-12T01:16:55.042Z,1019.68
2018-12-12T01:17:55.044Z,1019.73
2018-12-12T01:18:54.207Z,1019.78
2018-12-12T01:19:54.159Z,1019.80
2018-12-12T01:20:54.161Z,1019.75
2018-12-12T01:21:54.136Z,1019.72
2018-12-12T01:22:55.051Z,1019.71
2018-12-12T01:23:54.564Z,1019.74
2018-12-12T01:24:54.104Z,1019.71
2018-12-12T01:25:55.056Z,1019.70
2018-12-12T01:26:54.081Z,1019.74
2018-12-12T01:27:54.068Z,1019.58
2018-12-12T01:28:54.069Z,1019.65
2018-12-12T01:29:54.050Z,1019.64
2018-12-12T01:30:54.065Z,1019.61
2018-12-12T01:31:54.023Z,1019.60
2018-12-12T01:32:54.549Z,1019.65
2018-12-12T01:33:54.059Z,1019.69
2018-12-12T01:34:53.995Z,1019.65
2018-12-12T01:35:54.001Z,1019.68
2018-12-12T01:36:53.979Z,1019.67
2018-12-12T01:37:53.963Z,1019.71
2018-12-12T01:38:54.065Z,1019.73
2018-12-12T01:39:54.541Z,1019.76
2018-12-12T01:40:53.945Z,1019.72
2018-12-12T01:41:53.922Z,1019.76
2018-12-12T01:42:53.911Z,1019.77
2018-12-12T01:43:53.893Z,1019.77
2018-12-12T01:44:53.904Z,1019.82
2018-12-12T01:45:53.884Z,1019.82
2018-12-12T01:46:54.544Z,1019.86
2018-12-12T01:47:53.856Z,1019.87
2018-12-12T01:48:54.543Z,1019.87
2018-12-12T01:49:53.842Z,1019.87
2018-12-12T01:50:54.563Z,1019.88
2018-12-12T01:51:54.547Z,1019.86
2018-12-12T01:52:54.548Z,1019.88
2018-12-12T01:53:53.795Z,1019.89
2018-12-12T01:54:53.816Z,1019.87
2018-12-12T01:55:53.787Z,1019.86
2018-12-12T01:56:53.765Z,1019.85
2018-12-12T01:57:53.757Z,1019.81
2018-12-12T01:58:53.738Z,1019.81
2018-12-12T01:59:53.755Z,1019.79
2018-12-12T02:00:53.729Z,1019.80
2018-12-12T02:01:54.551Z,1019.82
2018-12-12T02:02:54.544Z,1019.87
2018-12-12T02:03:53.686Z,1019.84
2018-12-12T02:04:53.689Z,1019.84
2018-12-12T02:05:53.676Z,1019.78
2018-12-12T02:06:54.550Z,1019.83
2018-12-12T02:07:54.549Z,1019.88
2018-12-12T02:08:53.629Z,1019.91
2018-12-12T02:09:53.641Z,1019.93
2018-12-12T02:10:53.605Z,1019.91
2018-12-12T02:11:54.550Z,1019.93
2018-12-12T02:12:53.585Z,1019.96
2018-12-12T02:13:53.583Z,1019.94
2018-12-12T02:14:53.598Z,1019.98
2018-12-12T02:15:54.549Z,1019.96
2018-12-12T02:16:54.048Z,1019.98
2018-12-12T02:17:53.535Z,1019.93
2018-12-12T02:18:53.524Z,1019.96
2018-12-12T02:19:53.539Z,1019.97
2018-12-12T02:20:53.509Z,1019.96
2018-12-12T02:21:53.493Z,1019.93
2018-12-12T02:22:53.480Z,1019.93
2018-12-12T02:23:53.472Z,1019.96
2018-12-12T02:24:53.476Z,1019.97
2018-12-12T02:25:54.058Z,1019.98
2018-12-12T02:26:53.433Z,1019.94
2018-12-12T02:27:53.428Z,1019.95
2018-12-12T02:28:53.417Z,1019.96
2018-12-12T02:29:53.428Z,1019.94
2018-12-12T02:30:53.400Z,1019.93
2018-12-12T02:31:53.389Z,1019.91
2018-12-12T02:32:53.373Z,1019.85
2018-12-12T02:33:53.367Z,1019.79
2018-12-12T02:34:53.585Z,1019.87
2018-12-12T02:35:53.340Z,1019.88
2018-12-12T02:36:53.327Z,1019.89
2018-12-12T02:37:53.319Z,1019.89
2018-12-12T02:38:54.054Z,1019.91
2018-12-12T02:39:53.312Z,1019.88
2018-12-12T02:40:54.067Z,1019.87
2018-12-12T02:41:54.048Z,1019.91
2018-12-12T02:42:53.264Z,1019.90
2018-12-12T02:43:54.051Z,1019.88
2018-12-12T02:44:53.569Z,1019.87
2018-12-12T02:45:53.235Z,1019.87
2018-12-12T02:46:53.257Z,1019.90
2018-12-12T02:47:53.212Z,1019.90
2018-12-12T02:48:54.050Z,1019.89
2018-12-12T02:49:53.563Z,1019.93
2018-12-12T02:50:54.053Z,1019.91
2018-12-12T02:51:53.167Z,1019.93
2018-12-12T02:52:53.157Z,1019.96
2018-12-12T02:53:53.155Z,1019.95
2018-12-12T02:54:53.137Z,1019.95
2018-12-12T02:55:53.593Z,1020.00
2018-12-12T02:56:53.117Z,1020.01
2018-12-12T02:57:53.103Z,1019.99
2018-12-12T02:58:53.096Z,1019.97
2018-12-12T02:59:54.060Z,1019.96
2018-12-12T03:00:53.591Z,1019.97
2018-12-12T03:01:53.066Z,1019.94
2018-12-12T03:02:53.554Z,1019.98
2018-12-12T03:03:53.039Z,1019.99
2018-12-12T03:04:53.032Z,1020.00
2018-12-12T03:05:53.032Z,1020.05
2018-12-12T03:06:53.007Z,1020.10
2018-12-12T03:07:52.999Z,1020.09
2018-12-12T03:08:53.558Z,1020.15
2018-12-12T03:09:52.971Z,1020.12
2018-12-12T03:10:52.995Z,1020.15
2018-12-12T03:11:53.567Z,1020.17
2018-12-12T03:12:52.941Z,1020.18
2018-12-12T03:13:52.928Z,1020.20
2018-12-12T03:14:52.919Z,1020.17
2018-12-12T03:15:52.914Z,1020.17
2018-12-12T03:16:53.566Z,1020.16
2018-12-12T03:17:52.898Z,1020.19
2018-12-12T03:18:53.553Z,1020.12
2018-12-12T03:19:52.868Z,1020.17
2018-12-12T03:20:53.063Z,1020.22
2018-12-12T03:21:52.857Z,1020.20
2018-12-12T03:22:52.828Z,1020.21
2018-12-12T03:23:53.554Z,1020.22
2018-12-12T03:24:52.805Z,1020.20
2018-12-12T03:25:52.819Z,1020.23
2018-12-12T03:26:52.800Z,1020.15
2018-12-12T03:27:52.772Z,1020.23
2018-12-12T03:28:52.759Z,1020.23
2018-12-12T03:29:52.752Z,1020.23
2018-12-12T03:30:52.765Z,1020.25
2018-12-12T03:31:52.747Z,1020.26
2018-12-12T03:32:52.770Z,1020.19
2018-12-12T03:33:52.706Z,1020.16
2018-12-12T03:34:53.551Z,1020.18
2018-12-12T03:35:52.695Z,1020.11
2018-12-12T03:36:52.684Z,1020.15
2018-12-12T03:37:53.559Z,1020.10
2018-12-12T03:38:52.651Z,1020.12
2018-12-12T03:39:52.643Z,1020.14
2018-12-12T03:40:52.639Z,1020.07
2018-12-12T03:41:52.637Z,1020.10
2018-12-12T03:42:52.606Z,1020.06
2018-12-12T03:43:52.595Z,1020.09
2018-12-12T03:44:52.587Z,1020.04
2018-12-12T03:45:52.587Z,1020.03
2018-12-12T03:46:52.651Z,1020.07
2018-12-12T03:47:52.552Z,1020.07
2018-12-12T03:48:52.540Z,1020.07
2018-12-12T03:49:52.533Z,1020.06
2018-12-12T03:50:52.525Z,1020.11
2018-12-12T03:51:52.535Z,1020.14
2018-12-12T03:52:52.500Z,1020.14
2018-12-12T03:53:52.487Z,1020.07
2018-12-12T03:54:52.481Z,1020.09
2018-12-12T03:55:52.464Z,1020.06
2018-12-12T03:56:52.501Z,1020.09
2018-12-12T03:57:52.455Z,1020.06
2018-12-12T03:58:52.467Z,1020.03
2018-12-12T03:59:52.421Z,1020.04
2018-12-12T04:00:52.411Z,1020.02
2018-12-12T04:01:52.583Z,1020.00
2018-12-12T04:02:53.054Z,1019.97
2018-12-12T04:03:52.388Z,1020.02
2018-12-12T04:04:52.367Z,1020.04
2018-12-12T04:05:52.356Z,1020.04
2018-12-12T04:06:52.404Z,1020.03
2018-12-12T04:07:52.331Z,1020.01
2018-12-12T04:08:52.323Z,1020.00
2018-12-12T04:09:53.062Z,1019.93
2018-12-12T04:10:52.300Z,1019.97
2018-12-12T04:11:52.296Z,1020.01
2018-12-12T04:12:52.275Z,1020.05
2018-12-12T04:13:53.061Z,1019.96
2018-12-12T04:14:52.260Z,1019.98
2018-12-12T04:15:52.254Z,1020.04
2018-12-12T04:16:52.253Z,1019.99
2018-12-12T04:17:52.222Z,1019.99
2018-12-12T04:18:52.214Z,1020.03
2018-12-12T04:19:52.199Z,1019.98
2018-12-12T04:20:52.196Z,1020.05
2018-12-12T04:21:52.199Z,1020.06
2018-12-12T04:22:52.166Z,1020.06
2018-12-12T04:23:52.157Z,1020.09
2018-12-12T04:24:52.149Z,1020.10
2018-12-12T04:25:52.135Z,1020.02
2018-12-12T04:26:52.564Z,1020.05
2018-12-12T04:27:52.109Z,1020.04
2018-12-12T04:28:52.101Z,1020.10
2018-12-12T04:29:52.091Z,1020.07
2018-12-12T04:30:52.083Z,1020.04
2018-12-12T04:31:52.087Z,1019.96
2018-12-12T04:32:52.065Z,1020.04
2018-12-12T04:33:52.051Z,1020.07
2018-12-12T04:34:52.034Z,1020.02
2018-12-12T04:35:52.022Z,1020.09
2018-12-12T04:36:52.072Z,1020.07
2018-12-12T04:37:52.003Z,1020.03
2018-12-12T04:38:51.992Z,1020.03
2018-12-12T04:39:51.978Z,1020.07
2018-12-12T04:40:51.972Z,1020.08
2018-12-12T04:41:52.011Z,1020.09
2018-12-12T04:42:51.949Z,1020.10
2018-12-12T04:43:51.941Z,1020.10
2018-12-12T04:44:51.923Z,1020.10
2018-12-12T04:45:51.914Z,1020.08
2018-12-12T04:46:51.939Z,1020.01
2018-12-12T04:47:51.893Z,1020.04
2018-12-12T04:48:51.892Z,1020.05
2018-12-12T04:49:51.868Z,1020.03
2018-12-12T04:50:51.860Z,1020.05
2018-12-12T04:51:52.072Z,1019.98
2018-12-12T04:52:51.835Z,1020.05
2018-12-12T04:53:52.555Z,1020.10
2018-12-12T04:54:52.557Z,1020.08
2018-12-12T04:55:51.815Z,1020.10
2018-12-12T04:56:51.863Z,1020.13
2018-12-12T04:57:52.552Z,1020.11
2018-12-12T04:58:51.771Z,1020.11
2018-12-12T04:59:52.565Z,1020.13
2018-12-12T05:00:51.753Z,1020.12
2018-12-12T05:01:51.750Z,1020.15
2018-12-12T05:02:51.733Z,1020.13
2018-12-12T05:03:51.714Z,1020.19
2018-12-12T05:04:51.707Z,1020.16
2018-12-12T05:05:51.697Z,1020.20
2018-12-12T05:06:51.755Z,1020.18
2018-12-12T05:07:51.700Z,1020.15
2018-12-12T05:08:51.662Z,1020.13
2018-12-12T05:09:52.556Z,1020.19
2018-12-12T05:10:52.554Z,1020.23
2018-12-12T05:11:51.646Z,1020.18
2018-12-12T05:12:52.079Z,1020.23
2018-12-12T05:13:51.604Z,1020.20
2018-12-12T05:14:52.554Z,1020.25
2018-12-12T05:15:51.587Z,1020.22
2018-12-12T05:16:52.556Z,1020.15
2018-12-12T05:17:51.584Z,1020.23
2018-12-12T05:18:52.055Z,1020.13
2018-12-12T05:19:51.534Z,1020.20
2018-12-12T05:20:52.059Z,1020.15
2018-12-12T05:21:52.058Z,1020.17
2018-12-12T05:22:51.570Z,1020.18
2018-12-12T05:23:51.497Z,1020.14
2018-12-12T05:24:51.483Z,1020.12
2018-12-12T05:25:51.478Z,1020.24
2018-12-12T05:26:51.465Z,1020.20
2018-12-12T05:27:51.569Z,1020.13
2018-12-12T05:28:52.062Z,1020.19
2018-12-12T05:29:51.427Z,1020.23
2018-12-12T05:30:52.060Z,1020.23
2018-12-12T05:31:51.407Z,1020.21
2018-12-12T05:32:51.430Z,1020.27
2018-12-12T05:33:52.057Z,1020.23
2018-12-12T05:34:52.060Z,1020.18
2018-12-12T05:35:51.361Z,1020.27
2018-12-12T05:36:51.355Z,1020.28
2018-12-12T05:37:52.385Z,1020.26
2018-12-12T05:38:51.330Z,1020.24
2018-12-12T05:39:52.058Z,1020.27
2018-12-12T05:40:51.313Z,1020.25
2018-12-12T05:41:51.297Z,1020.24
2018-12-12T05:42:51.321Z,1020.25
2018-12-12T05:43:57.496Z,1020.28
2018-12-12T05:44:51.266Z,1020.27
2018-12-12T05:45:51.252Z,1020.22
2018-12-12T05:46:51.245Z,1020.31
2018-12-12T05:47:51.230Z,1020.29
2018-12-12T05:48:51.248Z,1020.30
2018-12-12T05:49:51.213Z,1020.26
2018-12-12T05:50:51.230Z,1020.29
2018-12-12T05:51:52.059Z,1020.30
2018-12-12T05:52:51.211Z,1020.28
2018-12-12T05:53:51.187Z,1020.21
2018-12-12T05:54:51.157Z,1020.27
2018-12-12T05:55:52.059Z,1020.23
2018-12-12T05:56:52.513Z,1020.22
2018-12-12T05:57:51.151Z,1020.19
2018-12-12T05:58:51.120Z,1020.28
2018-12-12T05:59:51.107Z,1020.31
2018-12-12T06:00:51.093Z,1020.32
2018-12-12T06:01:51.088Z,1020.36
2018-12-12T06:02:51.090Z,1020.37
2018-12-12T06:03:51.072Z,1020.35
2018-12-12T06:04:51.555Z,1020.35
2018-12-12T06:05:51.042Z,1020.38
2018-12-12T06:06:51.027Z,1020.35
2018-12-12T06:07:51.579Z,1020.37
2018-12-12T06:08:51.096Z,1020.44
2018-12-12T06:09:51.001Z,1020.43
2018-12-12T06:10:50.990Z,1020.46
2018-12-12T06:11:50.974Z,1020.54
2018-12-12T06:12:51.575Z,1020.49
2018-12-12T06:13:51.081Z,1020.49
2018-12-12T06:14:50.944Z,1020.45
2018-12-12T06:15:50.931Z,1020.36
2018-12-12T06:16:50.919Z,1020.52
2018-12-12T06:17:50.920Z,1020.48
2018-12-12T06:18:51.083Z,1020.41
2018-12-12T06:19:50.887Z,1020.48
2018-12-12T06:20:50.897Z,1020.46
2018-12-12T06:21:50.871Z,1020.55
2018-12-12T06:22:50.866Z,1020.54
2018-12-12T06:23:50.874Z,1020.52
2018-12-12T06:24:50.838Z,1020.55
2018-12-12T06:25:50.833Z,1020.53
2018-12-12T06:26:50.814Z,1020.56
2018-12-12T06:27:50.821Z,1020.58
2018-12-12T06:28:50.797Z,1020.52
2018-12-12T06:29:51.572Z,1020.64
2018-12-12T06:30:51.560Z,1020.66
2018-12-12T06:31:51.561Z,1020.61
2018-12-12T06:32:50.762Z,1020.62
2018-12-12T06:33:50.744Z,1020.71
2018-12-12T06:34:50.729Z,1020.67
2018-12-12T06:35:51.565Z,1020.63
2018-12-12T06:36:51.562Z,1020.71
2018-12-12T06:37:50.707Z,1020.70
2018-12-12T06:38:50.719Z,1020.72
2018-12-12T06:39:50.671Z,1020.65
2018-12-12T06:40:50.658Z,1020.69
2018-12-12T06:41:51.562Z,1020.68
2018-12-12T06:42:50.651Z,1020.62
2018-12-12T06:43:51.083Z,1020.67
2018-12-12T06:44:50.616Z,1020.66
2018-12-12T06:45:50.601Z,1020.65
2018-12-12T06:46:50.594Z,1020.64
2018-12-12T06:47:50.595Z,1020.69
2018-12-12T06:48:51.565Z,1020.65
2018-12-12T06:49:50.575Z,1020.67
2018-12-12T06:50:51.062Z,1020.70
2018-12-12T06:51:50.540Z,1020.71
2018-12-12T06:52:50.544Z,1020.76
2018-12-12T06:53:50.519Z,1020.69
2018-12-12T06:54:50.576Z,1020.65
2018-12-12T06:55:50.504Z,1020.61
2018-12-12T06:56:50.487Z,1020.74
2018-12-12T06:57:50.501Z,1020.71
2018-12-12T06:58:50.485Z,1020.68
2018-12-12T06:59:50.574Z,1020.74
2018-12-12T07:00:50.436Z,1020.75
2018-12-12T07:01:51.072Z,1020.71
2018-12-12T07:02:50.432Z,1020.70
2018-12-12T07:03:50.410Z,1020.72
2018-12-12T07:04:50.581Z,1020.77
2018-12-12T07:05:51.065Z,1020.72
2018-12-12T07:06:51.069Z,1020.74
2018-12-12T07:07:51.075Z,1020.75
2018-12-12T07:08:52.023Z,1020.78
2018-12-12T07:09:50.581Z,1020.76
2018-12-12T07:10:51.063Z,1020.77
2018-12-12T07:11:50.331Z,1020.78
2018-12-12T07:12:51.115Z,1020.77
2018-12-12T07:13:51.082Z,1020.78
2018-12-12T07:14:50.344Z,1020.79
2018-12-12T07:15:50.284Z,1020.71
2018-12-12T07:16:50.283Z,1020.74
2018-12-12T07:17:50.272Z,1020.80
2018-12-12T07:18:50.260Z,1020.79
2018-12-12T07:19:50.245Z,1020.83
2018-12-12T07:20:50.233Z,1020.78
2018-12-12T07:21:50.223Z,1020.84
2018-12-12T07:22:50.213Z,1020.79
2018-12-12T07:23:50.326Z,1020.76
2018-12-12T07:24:50.205Z,1020.76
2018-12-12T07:25:50.210Z,1020.73
2018-12-12T07:26:50.188Z,1020.78
2018-12-12T07:27:50.150Z,1020.76
2018-12-12T07:28:50.154Z,1020.81
2018-12-12T07:29:50.583Z,1020.84
2018-12-12T07:30:50.129Z,1020.85
2018-12-12T07:31:50.117Z,1020.80
2018-12-12T07:32:51.074Z,1020.84
2018-12-12T07:33:50.127Z,1020.93
2018-12-12T07:34:50.112Z,1020.82
2018-12-12T07:35:50.069Z,1020.92
2018-12-12T07:36:50.567Z,1020.91
2018-12-12T07:37:50.048Z,1020.88
2018-12-12T07:38:50.035Z,1020.89
2018-12-12T07:39:50.053Z,1020.84
2018-12-12T07:40:50.035Z,1020.83
2018-12-12T07:41:50.568Z,1020.88
2018-12-12T07:42:50.567Z,1020.91
2018-12-12T07:43:49.997Z,1020.91
2018-12-12T07:44:49.975Z,1020.94
2018-12-12T07:45:49.995Z,1020.91
2018-12-12T07:46:50.571Z,1020.94
2018-12-12T07:47:50.661Z,1020.88
2018-12-12T07:48:49.969Z,1020.92
2018-12-12T07:49:49.921Z,1020.95
2018-12-12T07:50:50.567Z,1021.01
2018-12-12T07:51:49.894Z,1020.96
2018-12-12T07:52:49.913Z,1020.96
2018-12-12T07:53:49.886Z,1020.95
2018-12-12T07:54:49.869Z,1020.99
2018-12-12T07:55:49.852Z,1021.03
2018-12-12T07:56:50.568Z,1021.00
2018-12-12T07:57:49.825Z,1021.01
2018-12-12T07:58:50.563Z,1020.97
2018-12-12T07:59:49.838Z,1021.06
2018-12-12T08:00:49.790Z,1021.04
2018-12-12T08:01:49.781Z,1021.05
2018-12-12T08:02:49.792Z,1021.02
2018-12-12T08:03:49.761Z,1020.94
2018-12-12T08:04:49.754Z,1021.00
2018-12-12T08:05:49.752Z,1021.06
2018-12-12T08:06:49.726Z,1021.04
2018-12-12T08:07:49.714Z,1021.07
2018-12-12T08:08:50.569Z,1021.06
2018-12-12T08:09:50.562Z,1021.03
2018-12-12T08:10:49.736Z,1021.07
2018-12-12T08:11:49.670Z,1021.12
2018-12-12T08:12:49.672Z,1021.10
2018-12-12T08:13:50.567Z,1021.12
2018-12-12T08:14:49.655Z,1021.14
2018-12-12T08:15:50.124Z,1021.10
2018-12-12T08:16:49.627Z,1021.18
2018-12-12T08:17:49.604Z,1021.04
2018-12-12T08:18:49.602Z,1021.22
2018-12-12T08:19:49.592Z,1021.20
2018-12-12T08:20:49.594Z,1021.25
2018-12-12T08:21:49.559Z,1021.21
2018-12-12T08:22:49.556Z,1021.11
2018-12-12T08:23:50.075Z,1021.06
2018-12-12T08:24:50.134Z,1021.18
2018-12-12T08:25:49.733Z,1021.10
2018-12-12T08:26:52.220Z,1021.22
2018-12-12T08:27:50.068Z,1021.11
2018-12-12T08:28:50.248Z,1021.17
2018-12-12T08:29:50.119Z,1021.24
2018-12-12T08:30:49.472Z,1021.11
2018-12-12T08:31:49.546Z,1021.24
2018-12-12T08:32:50.066Z,1021.22
2018-12-12T08:33:50.202Z,1021.26
2018-12-12T08:34:49.424Z,1021.28
2018-12-12T08:35:49.595Z,1021.25
2018-12-12T08:36:50.188Z,1021.26
2018-12-12T08:37:50.069Z,1021.28
2018-12-12T08:38:49.381Z,1021.25
2018-12-12T08:39:50.080Z,1021.27
2018-12-12T08:40:49.577Z,1021.37
2018-12-12T08:41:50.210Z,1021.31
2018-12-12T08:42:49.326Z,1021.26
2018-12-12T08:43:49.324Z,1021.31
2018-12-12T08:44:49.302Z,1021.31
2018-12-12T08:45:49.584Z,1021.28
2018-12-12T08:46:50.084Z,1021.20
2018-12-12T08:47:50.214Z,1021.27
2018-12-12T08:48:50.099Z,1021.30
2018-12-12T08:49:50.221Z,1021.31
2018-12-12T08:50:50.116Z,1021.33
2018-12-12T08:51:49.229Z,1021.31
2018-12-12T08:52:49.216Z,1021.31
2018-12-12T08:53:50.083Z,1021.28
2018-12-12T08:54:50.073Z,1021.28
2018-12-12T08:55:49.332Z,1021.29
2018-12-12T08:56:50.087Z,1021.24
2018-12-12T08:57:50.182Z,1021.27
2018-12-12T08:58:49.294Z,1021.30
2018-12-12T08:59:49.146Z,1021.33
2018-12-12T09:00:50.078Z,1021.26
2018-12-12T09:01:49.691Z,1021.36
2018-12-12T09:02:50.076Z,1021.27
2018-12-12T09:03:50.080Z,1021.39
2018-12-12T09:04:50.086Z,1021.39
2018-12-12T09:05:49.580Z,1021.37
2018-12-12T09:06:49.088Z,1021.37
2018-12-12T09:07:49.189Z,1021.35
2018-12-12T09:08:49.575Z,1021.34
2018-12-12T09:09:49.035Z,1021.41
2018-12-12T09:10:49.156Z,1021.38
2018-12-12T09:11:49.606Z,1021.35
2018-12-12T09:12:49.582Z,1021.44
2018-12-12T09:13:49.585Z,1021.36
2018-12-12T09:14:49.013Z,1021.43
2018-12-12T09:15:49.572Z,1021.46
2018-12-12T09:16:49.662Z,1021.43
2018-12-12T09:17:49.606Z,1021.46
2018-12-12T09:18:49.668Z,1021.46
2018-12-12T09:19:49.571Z,1021.44
2018-12-12T09:20:49.576Z,1021.45
2018-12-12T09:21:49.691Z,1021.48
2018-12-12T09:22:49.053Z,1021.58
2018-12-12T09:23:49.610Z,1021.52
2018-12-12T09:24:49.571Z,1021.54
2018-12-12T09:25:49.572Z,1021.52
2018-12-12T09:26:49.093Z,1021.55
2018-12-12T09:27:49.681Z,1021.51
2018-12-12T09:28:49.576Z,1021.52
2018-12-12T09:29:49.717Z,1021.53
2018-12-12T09:30:49.574Z,1021.53
2018-12-12T09:31:48.791Z,1021.52
2018-12-12T09:32:49.582Z,1021.49
2018-12-12T09:33:49.580Z,1021.47
2018-12-12T09:34:49.601Z,1021.51
2018-12-12T09:35:49.579Z,1021.50
2018-12-12T09:36:49.595Z,1021.52
2018-12-12T09:37:49.599Z,1021.55
2018-12-12T09:38:49.572Z,1021.58
2018-12-12T09:39:49.591Z,1021.58
2018-12-12T09:40:49.574Z,1021.61
2018-12-12T09:41:49.588Z,1021.53
2018-12-12T09:42:49.585Z,1021.58
2018-12-12T09:43:49.677Z,1021.49
2018-12-12T09:44:49.598Z,1021.50
2018-12-12T09:45:49.581Z,1021.47
2018-12-12T09:46:49.600Z,1021.58
2018-12-12T09:47:48.615Z,1021.53
2018-12-12T09:48:48.742Z,1021.54
2018-12-12T09:49:49.587Z,1021.54
2018-12-12T09:50:49.604Z,1021.56
2018-12-12T09:51:49.094Z,1021.55
2018-12-12T09:52:48.678Z,1021.52
2018-12-12T09:53:49.081Z,1021.55
2018-12-12T09:54:48.598Z,1021.51
2018-12-12T09:55:49.073Z,1021.59
2018-12-12T09:56:49.091Z,1021.52
2018-12-12T09:57:49.080Z,1021.63
2018-12-12T09:58:49.075Z,1021.60
2018-12-12T09:59:49.091Z,1021.59
2018-12-12T10:00:49.099Z,1021.58
2018-12-12T10:01:49.105Z,1021.57
2018-12-12T10:02:49.079Z,1021.49
2018-12-12T10:03:48.558Z,1021.55
2018-12-12T10:04:49.210Z,1021.54
2018-12-12T10:05:49.077Z,1021.53
2018-12-12T10:06:48.466Z,1021.54
2018-12-12T10:07:48.413Z,1021.47
2018-12-12T10:08:49.074Z,1021.51
2018-12-12T10:09:49.075Z,1021.57
2018-12-12T10:10:49.267Z,1021.59
2018-12-12T10:11:49.075Z,1021.60
2018-12-12T10:12:48.593Z,1021.61
2018-12-12T10:13:48.326Z,1021.58
2018-12-12T10:14:49.180Z,1021.61
2018-12-12T10:15:48.358Z,1021.59
2018-12-12T10:16:49.130Z,1021.61
2018-12-12T10:17:49.099Z,1021.62
2018-12-12T10:18:48.358Z,1021.64
2018-12-12T10:19:49.225Z,1021.63
2018-12-12T10:20:49.158Z,1021.59
2018-12-12T10:21:49.074Z,1021.51
2018-12-12T10:22:48.264Z,1021.63
2018-12-12T10:23:49.348Z,1021.56
2018-12-12T10:24:49.109Z,1021.57
2018-12-12T10:25:49.205Z,1021.53
2018-12-12T10:26:49.075Z,1021.52
2018-12-12T10:27:49.101Z,1021.45
2018-12-12T10:28:49.077Z,1021.52
2018-12-12T10:29:49.120Z,1021.53
2018-12-12T10:30:48.160Z,1021.48
2018-12-12T10:31:48.134Z,1021.51
2018-12-12T10:32:48.678Z,1021.45
2018-12-12T10:33:49.233Z,1021.43
2018-12-12T10:34:48.172Z,1021.46
2018-12-12T10:35:49.169Z,1021.47
2018-12-12T10:36:48.657Z,1021.41
2018-12-12T10:37:48.595Z,1021.47
2018-12-12T10:38:48.646Z,1021.47
2018-12-12T10:39:48.617Z,1021.45
2018-12-12T10:40:48.583Z,1021.44
2018-12-12T10:41:48.592Z,1021.45
2018-12-12T10:42:48.592Z,1021.44
2018-12-12T10:43:48.640Z,1021.49
2018-12-12T10:44:48.603Z,1021.44
2018-12-12T10:45:47.996Z,1021.43
2018-12-12T10:46:48.585Z,1021.46
2018-12-12T10:47:49.688Z,1021.33
2018-12-12T10:48:48.593Z,1021.40
2018-12-12T10:49:47.951Z,1021.38
2018-12-12T10:50:48.580Z,1021.35
2018-12-12T10:51:48.591Z,1021.41
2018-12-12T10:52:48.089Z,1021.39
2018-12-12T10:53:48.584Z,1021.39
2018-12-12T10:54:47.887Z,1021.39
2018-12-12T10:55:48.612Z,1021.37
2018-12-12T10:56:48.579Z,1021.38
2018-12-12T10:57:48.607Z,1021.37
2018-12-12T10:58:48.581Z,1021.43
2018-12-12T10:59:48.589Z,1021.44
2018-12-12T11:00:48.639Z,1021.39
2018-12-12T11:01:48.589Z,1021.43
2018-12-12T11:02:48.617Z,1021.39
2018-12-12T11:03:48.730Z,1021.43
2018-12-12T11:04:48.616Z,1021.38
2018-12-12T11:05:48.615Z,1021.39
2018-12-12T11:06:48.603Z,1021.33
2018-12-12T11:07:48.601Z,1021.32
2018-12-12T11:08:47.730Z,1021.33
2018-12-12T11:09:47.732Z,1021.33
2018-12-12T11:10:48.584Z,1021.29
2018-12-12T11:11:48.582Z,1021.21
2018-12-12T11:12:48.595Z,1021.20
2018-12-12T11:13:48.623Z,1021.13
2018-12-12T11:14:47.829Z,1021.16
2018-12-12T11:15:47.652Z,1021.27
2018-12-12T11:16:47.642Z,1021.22
2018-12-12T11:17:48.095Z,1021.17
2018-12-12T11:18:47.629Z,1021.20
2018-12-12T11:19:47.612Z,1021.16
2018-12-12T11:20:47.708Z,1021.20
2018-12-12T11:21:47.585Z,1021.16
2018-12-12T11:22:47.616Z,1021.13
2018-12-12T11:23:47.663Z,1021.13
2018-12-12T11:24:47.606Z,1021.10
2018-12-12T11:25:47.561Z,1021.11
2018-12-12T11:26:47.572Z,1021.09
2018-12-12T11:27:47.608Z,1021.02
2018-12-12T11:28:47.511Z,1021.05
2018-12-12T11:29:47.499Z,1021.02
2018-12-12T11:30:47.493Z,1021.08
2018-12-12T11:31:47.490Z,1021.05
2018-12-12T11:32:48.594Z,1021.07
2018-12-12T11:33:50.558Z,1021.06
2018-12-12T11:34:47.460Z,1021.02
2018-12-12T11:35:47.433Z,1021.01
2018-12-12T11:36:47.419Z,1021.02
2018-12-12T11:37:47.642Z,1020.96
2018-12-12T11:38:47.404Z,1021.02
2018-12-12T11:39:47.548Z,1020.97
2018-12-12T11:40:47.423Z,1020.97
2018-12-12T11:41:47.373Z,1020.95
2018-12-12T11:42:47.374Z,1020.97
2018-12-12T11:43:47.618Z,1020.98
2018-12-12T11:44:47.378Z,1020.95
2018-12-12T11:45:47.379Z,1020.94
2018-12-12T11:46:47.342Z,1020.88
2018-12-12T11:47:47.402Z,1020.87
2018-12-12T11:48:47.660Z,1020.88
2018-12-12T11:49:47.320Z,1020.85
2018-12-12T11:50:48.149Z,1020.90
2018-12-12T11:51:48.108Z,1020.88
2018-12-12T11:52:48.187Z,1020.87
2018-12-12T11:53:48.108Z,1020.87
2018-12-12T11:54:48.086Z,1020.88
2018-12-12T11:55:48.104Z,1020.86
2018-12-12T11:56:48.167Z,1020.87
2018-12-12T11:57:48.093Z,1020.86
2018-12-12T11:58:48.100Z,1020.85
2018-12-12T11:59:48.085Z,1020.85
2018-12-12T12:00:47.248Z,1020.87
2018-12-12T12:01:48.088Z,1020.86
2018-12-12T12:02:47.133Z,1020.84
2018-12-12T12:03:48.103Z,1020.86
2018-12-12T12:04:47.116Z,1020.88
2018-12-12T12:05:48.091Z,1020.87